Time;durP1;ratioP1;P1;durP2;ratioP2;P2;SDS_P1;SDS_P2;PMS_P1;PMS_P2;Temp;Humidity;BMP_temperature;BMP_pressure;BME280_temperature;BME280_humidity;BME280_pressure;Samples;Min_cycle;Max_cycle;Signal;HPM_P1;HPM_P2
2023/03/07 00:00:07;;;;;;;;;;;;;;;12.18;66.54;99454.78;1266178;23;692;-68
2023/03/07 00:00:57;;;;;;;;;;;;;;;12.18;66.89;99452.13;1265337;23;739;-68
2023/03/07 00:01:49;;;;;;;;;;;;;;;12.16;66.44;99462.94;1266600;23;688;-68
2023/03/07 00:02:40;;;;;;;;;;;;;;;12.17;66.93;99463.78;1265326;23;646;-68
2023/03/07 00:03:30;;;;;;;;;;;;;;;12.16;67.20;99457.59;1265798;23;634;-68
2023/03/07 00:04:21;;;;;;;;;;;;;;;12.17;67.20;99458.44;1266560;23;771;-68
2023/03/07 00:05:13;;;;;;;;;;;;;;;12.17;66.50;99458.44;1265471;23;671;-68
2023/03/07 00:06:04;;;;;;;;;;;;;;;12.18;67.03;99456.59;1266458;23;653;-68
2023/03/07 00:06:54;;;;;;;;;;;;;;;12.18;66.31;99451.28;1266936;23;672;-67
2023/03/07 00:07:45;;;;;;;;;;;;;;;12.18;66.23;99461.94;1265577;23;713;-66
2023/03/07 00:08:35;;;;;;;;;;;;;;;12.13;67.08;99457.88;1266192;23;625;-67
2023/03/07 00:09:26;;;;;;;;;;;;;;;12.14;66.92;99459.56;1265272;23;688;-69
2023/03/07 00:10:16;;;;;;;;;;;;;;;12.15;66.18;99458.56;1260675;23;614;-67
2023/03/07 00:11:06;;;;;;;;;;;;;;;12.17;66.92;99458.44;1259979;23;720;-69
2023/03/07 00:11:57;;;;;;;;;;;;;;;12.15;66.32;99455.06;1265084;23;764;-69
2023/03/07 00:12:47;;;;;;;;;;;;;;;12.14;66.10;99464.91;1265340;23;1929;-70
2023/03/07 00:13:38;;;;;;;;;;;;;;;12.13;67.00;99457.03;1265411;23;673;-69
2023/03/07 00:14:28;;;;;;;;;;;;;;;12.14;67.04;99462.22;1265248;23;645;-69
2023/03/07 00:15:19;;;;;;;;;;;;;;;12.14;66.15;99459.56;1265769;23;657;-69
2023/03/07 00:16:09;;;;;;;;;;;;;;;12.13;66.10;99455.22;1266005;23;673;-68
2023/03/07 00:16:59;;;;;;;;;;;;;;;12.14;66.82;99456.06;1265469;23;658;-69
2023/03/07 00:17:50;;;;;;;;;;;;;;;12.12;66.72;99460.69;1265251;23;819;-69
2023/03/07 00:18:40;;;;;;;;;;;;;;;12.12;66.86;99456.19;1265470;23;669;-69
2023/03/07 00:19:31;;;;;;;;;;;;;;;12.13;67.08;99449.88;1265893;23;688;-69
2023/03/07 00:20:21;;;;;;;;;;;;;;;12.11;66.37;99457.19;1260738;23;625;-68
2023/03/07 00:21:12;;;;;;;;;;;;;;;12.12;66.92;99450.00;1259749;23;638;-68
2023/03/07 00:22:02;;;;;;;;;;;;;;;12.11;66.61;99448.31;1265287;23;626;-68
2023/03/07 00:22:53;;;;;;;;;;;;;;;12.12;67.11;99452.69;1265414;23;666;-68
2023/03/07 00:23:43;;;;;;;;;;;;;;;12.10;66.21;99455.50;1265260;23;657;-68
2023/03/07 00:24:33;;;;;;;;;;;;;;;12.09;67.10;99445.78;1264830;23;655;-69
2023/03/07 00:25:24;;;;;;;;;;;;;;;12.09;66.33;99444.94;1265273;23;645;-68
2023/03/07 00:26:14;;;;;;;;;;;;;;;12.12;66.46;99452.69;1265221;23;629;-69
2023/03/07 00:27:05;;;;;;;;;;;;;;;12.12;66.17;99440.16;1266025;23;692;-68
2023/03/07 00:27:55;;;;;;;;;;;;;;;12.10;65.98;99444.81;1265422;23;658;-67
2023/03/07 00:28:46;;;;;;;;;;;;;;;12.11;66.04;99441.16;1265175;23;638;-68
2023/03/07 00:29:36;;;;;;;;;;;;;;;12.09;66.85;99437.78;1265361;23;658;-68
2023/03/07 00:30:27;;;;;;;;;;;;;;;12.09;66.71;99443.13;1266067;23;649;-68
2023/03/07 00:31:17;;;;;;;;;;;;;;;12.10;66.81;99442.13;1265208;23;631;-68
2023/03/07 00:32:07;;;;;;;;;;;;;;;12.10;66.22;99444.81;1266422;23;677;-68
2023/03/07 00:32:58;;;;;;;;;;;;;;;12.09;66.72;99443.13;1265093;23;1905;-68
2023/03/07 00:33:48;;;;;;;;;;;;;;;12.08;66.67;99441.44;1265561;23;654;-68
2023/03/07 00:34:39;;;;;;;;;;;;;;;12.10;66.77;99441.28;1260647;23;641;-67
2023/03/07 00:35:29;;;;;;;;;;;;;;;12.11;66.97;99443.81;1259833;23;610;-67
2023/03/07 00:36:20;;;;;;;;;;;;;;;12.09;66.74;99440.44;1265503;23;653;-67
2023/03/07 00:37:10;;;;;;;;;;;;;;;12.10;67.04;99442.13;1265051;23;1318;-67
2023/03/07 00:38:01;;;;;;;;;;;;;;;12.08;66.34;99443.25;1265766;23;674;-67
2023/03/07 00:38:51;;;;;;;;;;;;;;;12.07;66.40;99453.09;1265077;23;611;-68
2023/03/07 00:39:41;;;;;;;;;;;;;;;12.06;66.89;99455.91;1265275;23;648;-67
2023/03/07 00:40:32;;;;;;;;;;;;;;;12.08;67.10;99470.81;1266022;23;587;-68
2023/03/07 00:41:23;;;;;;;;;;;;;;;12.09;67.05;99463.63;1265165;23;665;-68
2023/03/07 00:42:13;;;;;;;;;;;;;;;12.06;66.50;99456.75;1265065;23;627;-67
2023/03/07 00:43:03;;;;;;;;;;;;;;;12.08;67.13;99454.78;1265328;23;629;-67
2023/03/07 00:43:54;;;;;;;;;;;;;;;12.10;67.08;99458.16;1266121;23;646;-67
2023/03/07 00:44:44;;;;;;;;;;;;;;;12.10;66.23;99465.31;1265454;23;769;-67
2023/03/07 00:45:35;;;;;;;;;;;;;;;12.11;66.53;99469.69;1265357;23;666;-67
2023/03/07 00:46:25;;;;;;;;;;;;;;;12.09;66.41;99461.81;1265931;23;622;-67
2023/03/07 00:47:15;;;;;;;;;;;;;;;12.11;66.89;99467.84;1265991;23;638;-67
2023/03/07 00:48:06;;;;;;;;;;;;;;;12.10;66.30;99468.84;1264952;23;629;-67
2023/03/07 00:48:57;;;;;;;;;;;;;;;12.10;66.67;99452.81;1266142;23;618;-67
2023/03/07 00:49:47;;;;;;;;;;;;;;;12.10;66.64;99468.00;1265097;23;713;-67
2023/03/07 00:50:37;;;;;;;;;;;;;;;12.09;66.96;99456.47;1266162;23;678;-67
2023/03/07 00:51:28;;;;;;;;;;;;;;;12.09;65.99;99464.47;1266083;23;657;-67
2023/03/07 00:52:18;;;;;;;;;;;;;;;12.07;66.64;99463.78;1265103;23;677;-67
2023/03/07 00:53:09;;;;;;;;;;;;;;;12.08;66.37;99461.94;1264747;23;712;-67
2023/03/07 00:53:59;;;;;;;;;;;;;;;12.09;66.78;99475.16;1265334;23;682;-67
2023/03/07 00:54:49;;;;;;;;;;;;;;;12.08;66.80;99473.47;1265332;23;685;-67
2023/03/07 00:55:40;;;;;;;;;;;;;;;12.08;65.94;99476.16;1266057;23;672;-67
2023/03/07 00:56:30;;;;;;;;;;;;;;;12.10;66.66;99468.84;1265422;23;717;-67
2023/03/07 00:57:21;;;;;;;;;;;;;;;12.09;66.96;99456.47;1265375;23;645;-67
2023/03/07 00:58:11;;;;;;;;;;;;;;;12.10;66.68;99474.19;1265112;23;673;-67
2023/03/07 00:59:02;;;;;;;;;;;;;;;12.10;66.73;99471.50;1265244;23;716;-67
2023/03/07 00:59:52;;;;;;;;;;;;;;;12.11;66.80;99470.53;1265190;23;661;-67
2023/03/07 01:00:42;;;;;;;;;;;;;;;12.11;67.15;99464.34;1265295;23;634;-67
2023/03/07 01:01:33;;;;;;;;;;;;;;;12.11;66.61;99464.34;1265781;23;682;-67
2023/03/07 01:02:23;;;;;;;;;;;;;;;12.08;66.50;99457.47;1265950;23;767;-67
2023/03/07 01:03:14;;;;;;;;;;;;;;;12.09;66.26;99463.63;1265407;23;681;-67
2023/03/07 01:04:04;;;;;;;;;;;;;;;12.10;66.96;99463.50;1265333;23;685;-67
2023/03/07 01:04:54;;;;;;;;;;;;;;;12.09;67.27;99461.81;1265354;23;665;-67
2023/03/07 01:05:45;;;;;;;;;;;;;;;12.10;66.86;99468.00;1266312;23;614;-67
2023/03/07 01:06:35;;;;;;;;;;;;;;;12.10;66.84;99454.66;1260448;23;609;-67
2023/03/07 01:07:26;;;;;;;;;;;;;;;12.10;67.02;99457.31;1259985;23;615;-67
2023/03/07 01:08:16;;;;;;;;;;;;;;;12.10;66.02;99458.16;1265313;23;622;-67
2023/03/07 01:09:07;;;;;;;;;;;;;;;12.10;66.84;99455.50;1266538;23;641;-67
2023/03/07 01:09:57;;;;;;;;;;;;;;;12.10;66.63;99460.81;1266253;23;682;-67
2023/03/07 01:10:48;;;;;;;;;;;;;;;12.11;66.30;99453.66;1265234;23;677;-67
2023/03/07 01:11:38;;;;;;;;;;;;;;;12.12;66.14;99456.19;1265417;23;650;-67
2023/03/07 01:12:28;;;;;;;;;;;;;;;12.12;66.25;99455.34;1266359;23;719;-67
2023/03/07 01:13:19;;;;;;;;;;;;;;;12.10;66.74;99458.16;1266089;23;580;-67
2023/03/07 01:14:09;;;;;;;;;;;;;;;12.08;66.14;99441.44;1265244;23;626;-67
2023/03/07 01:15:00;;;;;;;;;;;;;;;12.06;67.12;99451.41;1265388;23;654;-67
2023/03/07 01:15:50;;;;;;;;;;;;;;;12.05;66.99;99440.88;1266081;23;646;-67
2023/03/07 01:16:41;;;;;;;;;;;;;;;12.05;66.32;99441.72;1265379;23;633;-67
2023/03/07 01:17:31;;;;;;;;;;;;;;;12.06;67.33;99446.06;1265171;23;704;-67
2023/03/07 01:18:21;;;;;;;;;;;;;;;12.06;67.08;99446.06;1265050;23;673;-67
2023/03/07 01:19:12;;;;;;;;;;;;;;;12.07;66.63;99436.22;1265436;23;673;-67
2023/03/07 01:20:06;;;;;;;;;;;;;;;12.07;66.85;99444.25;1266057;23;668;-68
2023/03/07 01:20:56;;;;;;;;;;;;;;;12.07;67.14;99429.06;1265256;23;638;-68
2023/03/07 01:21:47;;;;;;;;;;;;;;;12.07;66.40;99431.75;1265434;23;630;-68
2023/03/07 01:22:37;;;;;;;;;;;;;;;12.08;67.26;99433.44;1266016;23;728;-68
2023/03/07 01:23:28;;;;;;;;;;;;;;;12.07;66.53;99431.75;1265353;23;657;-68
2023/03/07 01:24:18;;;;;;;;;;;;;;;12.07;66.49;99426.41;1265370;23;645;-68
2023/03/07 01:25:08;;;;;;;;;;;;;;;12.06;66.93;99430.06;1265484;23;633;-68
2023/03/07 01:25:59;;;;;;;;;;;;;;;12.04;66.79;99431.19;1265257;23;656;-68
2023/03/07 01:26:49;;;;;;;;;;;;;;;12.04;66.60;99425.84;1266063;23;626;-68
2023/03/07 01:27:40;;;;;;;;;;;;;;;12.04;67.13;99431.19;1265496;23;885;-68
2023/03/07 01:28:30;;;;;;;;;;;;;;;12.03;66.59;99419.66;1264996;23;625;-68
2023/03/07 01:29:21;;;;;;;;;;;;;;;12.02;66.96;99425.97;1265541;23;696;-67
2023/03/07 01:30:11;;;;;;;;;;;;;;;12.03;67.51;99427.66;1265347;23;652;-67
2023/03/07 01:31:01;;;;;;;;;;;;;;;12.01;67.13;99426.97;1265458;23;619;-67
2023/03/07 01:31:52;;;;;;;;;;;;;;;12.01;66.70;99420.78;1265619;23;658;-67
2023/03/07 01:32:42;;;;;;;;;;;;;;;12.01;67.00;99429.63;1265080;23;1926;-67
2023/03/07 01:33:33;;;;;;;;;;;;;;;12.02;67.25;99425.97;1265531;23;625;-67
2023/03/07 01:34:23;;;;;;;;;;;;;;;12.02;66.83;99423.31;1265085;23;606;-67
2023/03/07 01:35:14;;;;;;;;;;;;;;;12.02;67.50;99423.31;1266116;23;633;-67
2023/03/07 01:36:04;;;;;;;;;;;;;;;12.03;66.98;99424.16;1265228;23;622;-67
2023/03/07 01:36:55;;;;;;;;;;;;;;;12.02;66.61;99423.31;1265326;23;1145;-67
2023/03/07 01:37:45;;;;;;;;;;;;;;;12.02;67.20;99423.31;1265019;23;626;-67
2023/03/07 01:38:35;;;;;;;;;;;;;;;12.01;66.91;99421.63;1266316;23;615;-67
2023/03/07 01:39:26;;;;;;;;;;;;;;;12.02;66.96;99423.31;1265636;23;629;-67
2023/03/07 01:40:16;;;;;;;;;;;;;;;12.04;67.52;99425.84;1265992;23;977;-67
2023/03/07 01:41:07;;;;;;;;;;;;;;;12.03;67.34;99419.66;1265326;23;637;-67
2023/03/07 01:41:57;;;;;;;;;;;;;;;12.03;66.74;99414.31;1265449;23;658;-67
2023/03/07 01:42:48;;;;;;;;;;;;;;;12.03;67.53;99414.31;1265455;23;690;-67
2023/03/07 01:43:38;;;;;;;;;;;;;;;12.03;67.27;99413.47;1265810;23;637;-67
2023/03/07 01:44:28;;;;;;;;;;;;;;;12.04;67.60;99421.34;1265472;23;634;-67
2023/03/07 01:45:19;;;;;;;;;;;;;;;12.05;67.54;99417.69;1265643;23;689;-67
2023/03/07 01:46:09;;;;;;;;;;;;;;;12.04;66.66;99410.66;1260523;23;669;-67
2023/03/07 01:47:00;;;;;;;;;;;;;;;12.04;67.48;99410.66;1259745;23;649;-67
2023/03/07 01:47:50;;;;;;;;;;;;;;;12.05;67.56;99417.69;1264849;23;666;-67
2023/03/07 01:48:40;;;;;;;;;;;;;;;12.04;67.30;99416.00;1265422;23;651;-67
2023/03/07 01:49:31;;;;;;;;;;;;;;;12.03;67.07;99408.97;1265503;23;676;-66
2023/03/07 01:50:21;;;;;;;;;;;;;;;12.03;67.47;99413.47;1264995;23;606;-67
2023/03/07 01:51:12;;;;;;;;;;;;;;;12.02;66.47;99411.78;1265561;23;677;-66
2023/03/07 01:52:03;;;;;;;;;;;;;;;12.03;67.59;99411.63;1265886;23;649;-67
2023/03/07 01:52:53;;;;;;;;;;;;;;;12.04;66.61;99416.00;1264999;23;1913;-66
2023/03/07 01:53:43;;;;;;;;;;;;;;;12.04;66.92;99408.00;1265226;23;606;-66
2023/03/07 01:54:34;;;;;;;;;;;;;;;12.02;67.17;99412.63;1265582;23;673;-67
2023/03/07 01:55:24;;;;;;;;;;;;;;;12.02;66.89;99412.63;1265002;23;658;-66
2023/03/07 01:56:15;;;;;;;;;;;;;;;12.01;67.46;99410.09;1265175;23;672;-67
2023/03/07 01:57:05;;;;;;;;;;;;;;;12.00;67.09;99409.25;1265858;23;708;-66
2023/03/07 01:57:55;;;;;;;;;;;;;;;12.01;66.70;99404.75;1265193;23;614;-66
2023/03/07 01:58:46;;;;;;;;;;;;;;;12.01;67.14;99405.59;1265968;23;677;-66
2023/03/07 01:59:36;;;;;;;;;;;;;;;12.01;66.98;99410.94;1265098;23;610;-67
2023/03/07 02:00:29;;;;;;;;;;;;;;;12.02;67.22;99406.44;1265284;23;641;-67
2023/03/07 02:01:20;;;;;;;;;;;;;;;12.01;67.69;99415.44;1266178;23;692;-67
2023/03/07 02:02:11;;;;;;;;;;;;;;;12.02;67.13;99406.44;1265176;23;594;-68
2023/03/07 02:03:01;;;;;;;;;;;;;;;12.02;66.97;99414.44;1265899;23;658;-68
2023/03/07 02:03:51;;;;;;;;;;;;;;;12.01;66.68;99405.59;1265030;23;611;-68
2023/03/07 02:04:42;;;;;;;;;;;;;;;12.00;67.46;99409.25;1265563;23;669;-68
2023/03/07 02:05:32;;;;;;;;;;;;;;;11.98;67.16;99408.59;1265359;23;625;-68
2023/03/07 02:06:23;;;;;;;;;;;;;;;11.99;67.72;99407.59;1260348;23;656;-68
2023/03/07 02:07:13;;;;;;;;;;;;;;;12.00;67.54;99408.44;1259424;23;573;-68
2023/03/07 02:08:03;;;;;;;;;;;;;;;12.00;67.06;99406.59;1265009;23;689;-68
2023/03/07 02:08:54;;;;;;;;;;;;;;;12.01;67.51;99413.59;1265330;23;677;-68
2023/03/07 02:09:44;;;;;;;;;;;;;;;12.00;66.80;99403.91;1265196;23;670;-68
2023/03/07 02:10:35;;;;;;;;;;;;;;;12.00;67.74;99409.25;1266075;23;622;-68
2023/03/07 02:11:25;;;;;;;;;;;;;;;12.00;67.21;99403.09;1264997;23;653;-68
2023/03/07 02:12:16;;;;;;;;;;;;;;;11.96;67.22;99399.88;1265194;23;624;-68
2023/03/07 02:13:06;;;;;;;;;;;;;;;11.97;66.98;99406.06;1265352;23;1884;-68
2023/03/07 02:13:56;;;;;;;;;;;;;;;11.96;67.68;99402.53;1265566;23;610;-68
2023/03/07 02:14:47;;;;;;;;;;;;;;;11.97;67.52;99408.72;1265808;23;640;-68
2023/03/07 02:15:38;;;;;;;;;;;;;;;11.98;67.91;99405.91;1265413;23;638;-68
2023/03/07 02:16:28;;;;;;;;;;;;;;;11.98;67.21;99403.25;1265598;23;610;-68
2023/03/07 02:17:19;;;;;;;;;;;;;;;11.98;66.81;99399.72;1265954;23;673;-68
2023/03/07 02:18:09;;;;;;;;;;;;;;;11.99;67.28;99396.91;1265560;23;598;-68
2023/03/07 02:19:00;;;;;;;;;;;;;;;12.00;67.16;99398.56;1266728;23;672;-67
2023/03/07 02:19:50;;;;;;;;;;;;;;;11.99;67.49;99398.75;1266569;23;684;-67
2023/03/07 02:20:41;;;;;;;;;;;;;;;11.99;67.27;99401.41;1265935;23;645;-67
2023/03/07 02:21:31;;;;;;;;;;;;;;;11.99;67.18;99404.09;1266075;23;626;-67
2023/03/07 02:22:21;;;;;;;;;;;;;;;11.99;66.88;99401.41;1265733;23;590;-67
2023/03/07 02:23:12;;;;;;;;;;;;;;;12.00;67.17;99398.56;1265671;23;638;-67
2023/03/07 02:24:02;;;;;;;;;;;;;;;12.00;66.85;99401.25;1266333;23;653;-67
2023/03/07 02:24:53;;;;;;;;;;;;;;;11.99;66.71;99396.06;1265796;23;610;-67
2023/03/07 02:25:43;;;;;;;;;;;;;;;12.00;67.71;99389.75;1265791;23;618;-67
2023/03/07 02:26:34;;;;;;;;;;;;;;;12.00;67.32;99395.91;1266640;23;638;-67
2023/03/07 02:27:24;;;;;;;;;;;;;;;11.97;67.66;99385.53;1266358;23;791;-67
2023/03/07 02:28:15;;;;;;;;;;;;;;;11.97;67.83;99393.56;1265933;23;678;-67
2023/03/07 02:29:05;;;;;;;;;;;;;;;11.97;67.57;99390.88;1266147;23;653;-67
2023/03/07 02:29:56;;;;;;;;;;;;;;;11.96;66.97;99386.53;1266189;23;627;-67
2023/03/07 02:30:46;;;;;;;;;;;;;;;11.97;67.71;99388.22;1265643;23;627;-68
2023/03/07 02:31:36;;;;;;;;;;;;;;;11.96;68.03;99389.19;1265741;23;725;-68
2023/03/07 02:32:27;;;;;;;;;;;;;;;11.94;67.85;99390.31;1266748;23;629;-68
2023/03/07 02:33:17;;;;;;;;;;;;;;;11.95;67.75;99384.84;1265753;23;611;-68
2023/03/07 02:34:08;;;;;;;;;;;;;;;11.96;67.10;99386.53;1265922;23;712;-69
2023/03/07 02:34:58;;;;;;;;;;;;;;;11.96;67.67;99388.34;1265989;23;629;-69
2023/03/07 02:35:49;;;;;;;;;;;;;;;11.98;67.11;99384.56;1265867;23;696;-70
2023/03/07 02:36:39;;;;;;;;;;;;;;;11.97;67.50;99382.88;1265610;23;631;-69
2023/03/07 02:37:29;;;;;;;;;;;;;;;11.95;67.68;99384.84;1265790;23;615;-69
2023/03/07 02:38:20;;;;;;;;;;;;;;;11.95;67.24;99382.16;1265949;23;666;-69
2023/03/07 02:39:10;;;;;;;;;;;;;;;11.95;67.96;99384.84;1265544;23;631;-69
2023/03/07 02:40:01;;;;;;;;;;;;;;;11.93;67.72;99376.13;1265834;23;576;-69
2023/03/07 02:40:52;;;;;;;;;;;;;;;11.95;68.04;99382.16;1265889;23;708;-69
2023/03/07 02:41:42;;;;;;;;;;;;;;;11.97;67.24;99376.69;1265591;23;756;-69
2023/03/07 02:42:33;;;;;;;;;;;;;;;11.96;67.46;99373.19;1266610;23;606;-69
2023/03/07 02:43:23;;;;;;;;;;;;;;;11.97;67.78;99377.53;1265898;23;591;-69
2023/03/07 02:44:13;;;;;;;;;;;;;;;11.97;67.90;99372.19;1265801;23;674;-70
2023/03/07 02:45:04;;;;;;;;;;;;;;;12.01;67.37;99375.38;1265867;23;649;-69
2023/03/07 02:45:54;;;;;;;;;;;;;;;11.99;67.27;99375.56;1265606;23;618;-69
2023/03/07 02:46:45;;;;;;;;;;;;;;;11.99;67.91;99370.22;1265742;23;610;-68
2023/03/07 02:47:35;;;;;;;;;;;;;;;11.99;67.28;99372.91;1265918;23;630;-67
2023/03/07 02:48:25;;;;;;;;;;;;;;;11.97;67.80;99377.53;1265797;23;614;-67
2023/03/07 02:49:16;;;;;;;;;;;;;;;11.97;67.58;99369.53;1265383;23;614;-67
2023/03/07 02:50:07;;;;;;;;;;;;;;;11.96;67.29;99381.19;1266577;23;681;-67
2023/03/07 02:50:57;;;;;;;;;;;;;;;11.96;67.75;99370.50;1265659;23;634;-68
2023/03/07 02:51:48;;;;;;;;;;;;;;;11.97;67.83;99379.34;1266751;23;681;-68
2023/03/07 02:52:38;;;;;;;;;;;;;;;11.97;67.45;99379.34;1266485;23;654;-68
2023/03/07 02:53:29;;;;;;;;;;;;;;;11.95;67.08;99374.16;1265783;23;687;-68
2023/03/07 02:54:19;;;;;;;;;;;;;;;11.93;67.23;99373.47;1265552;23;661;-68
2023/03/07 02:55:09;;;;;;;;;;;;;;;11.93;67.91;99376.13;1265578;23;658;-67
2023/03/07 02:56:00;;;;;;;;;;;;;;;11.94;67.62;99372.47;1265908;23;625;-68
2023/03/07 02:56:50;;;;;;;;;;;;;;;11.95;67.04;99371.50;1265696;23;701;-67
2023/03/07 02:57:41;;;;;;;;;;;;;;;11.95;67.61;99368.81;1265869;23;653;-67
2023/03/07 02:58:31;;;;;;;;;;;;;;;11.95;67.09;99365.31;1265606;23;705;-67
2023/03/07 02:59:22;;;;;;;;;;;;;;;11.96;67.51;99365.16;1265677;23;673;-68
2023/03/07 03:00:12;;;;;;;;;;;;;;;11.94;67.89;99364.47;1265933;23;658;-68
2023/03/07 03:01:03;;;;;;;;;;;;;;;11.92;67.23;99369.09;1265872;23;681;-68
2023/03/07 03:01:53;;;;;;;;;;;;;;;11.93;67.31;99367.28;1265643;23;853;-68
2023/03/07 03:02:44;;;;;;;;;;;;;;;11.94;68.26;99363.63;1265927;23;649;-68
2023/03/07 03:03:34;;;;;;;;;;;;;;;11.95;67.54;99360.81;1265617;23;736;-68
2023/03/07 03:04:25;;;;;;;;;;;;;;;11.96;67.20;99356.31;1265839;23;614;-67
2023/03/07 03:05:15;;;;;;;;;;;;;;;11.95;67.68;99367.97;1266679;23;602;-68
2023/03/07 03:06:05;;;;;;;;;;;;;;;11.95;67.61;99373.31;1265738;23;635;-68
2023/03/07 03:06:56;;;;;;;;;;;;;;;11.96;68.06;99362.50;1265779;23;690;-67
2023/03/07 03:07:47;;;;;;;;;;;;;;;11.95;67.06;99371.50;1265670;23;783;-68
2023/03/07 03:08:37;;;;;;;;;;;;;;;11.96;67.98;99365.16;1261127;23;697;-68
2023/03/07 03:09:28;;;;;;;;;;;;;;;11.96;67.60;99362.50;1260234;23;693;-68
2023/03/07 03:10:18;;;;;;;;;;;;;;;11.95;67.31;99358.16;1265412;23;594;-68
2023/03/07 03:11:09;;;;;;;;;;;;;;;11.96;68.02;99362.50;1265740;23;697;-67
2023/03/07 03:11:59;;;;;;;;;;;;;;;11.97;68.12;99361.50;1265516;23;624;-67
2023/03/07 03:12:50;;;;;;;;;;;;;;;11.97;67.55;99358.00;1266461;23;1889;-66
2023/03/07 03:13:40;;;;;;;;;;;;;;;11.97;67.82;99363.34;1261073;23;653;-66
2023/03/07 03:14:31;;;;;;;;;;;;;;;11.96;67.58;99362.50;1260060;23;603;-67
2023/03/07 03:15:21;;;;;;;;;;;;;;;11.96;67.80;99361.66;1265530;23;665;-67
2023/03/07 03:16:12;;;;;;;;;;;;;;;11.95;67.23;99363.47;1265810;23;665;-66
2023/03/07 03:17:02;;;;;;;;;;;;;;;11.96;67.18;99364.31;1265885;23;684;-67
2023/03/07 03:17:53;;;;;;;;;;;;;;;11.95;67.35;99368.81;1265764;23;660;-67
2023/03/07 03:18:43;;;;;;;;;;;;;;;11.96;67.88;99365.16;1265446;23;617;-67
2023/03/07 03:19:34;;;;;;;;;;;;;;;11.98;67.25;99357.03;1261041;23;649;-67
2023/03/07 03:20:24;;;;;;;;;;;;;;;11.97;67.50;99361.50;1260255;23;605;-67
2023/03/07 03:21:15;;;;;;;;;;;;;;;11.95;68.09;99366.16;1265818;23;740;-67
2023/03/07 03:22:05;;;;;;;;;;;;;;;11.97;67.66;99352.66;1266466;23;743;-66
2023/03/07 03:22:56;;;;;;;;;;;;;;;11.96;67.12;99361.66;1265753;23;626;-67
2023/03/07 03:23:46;;;;;;;;;;;;;;;11.97;68.04;99353.50;1265471;23;621;-67
2023/03/07 03:24:37;;;;;;;;;;;;;;;11.97;68.11;99353.50;1265799;23;619;-67
2023/03/07 03:25:27;;;;;;;;;;;;;;;11.97;67.13;99356.19;1265892;23;661;-67
2023/03/07 03:26:18;;;;;;;;;;;;;;;11.96;67.58;99359.84;1266484;23;625;-66
2023/03/07 03:27:08;;;;;;;;;;;;;;;11.95;67.58;99352.81;1265870;23;614;-66
2023/03/07 03:27:58;;;;;;;;;;;;;;;11.96;67.36;99353.66;1266653;23;605;-66
2023/03/07 03:28:49;;;;;;;;;;;;;;;11.96;67.81;99351.81;1266597;23;661;-65
2023/03/07 03:29:39;;;;;;;;;;;;;;;11.94;67.55;99351.13;1266499;23;772;-65
2023/03/07 03:30:31;;;;;;;;;;;;;;;11.96;67.74;99350.97;1265841;23;645;-66
2023/03/07 03:31:21;;;;;;;;;;;;;;;11.95;67.62;99350.13;1265511;23;665;-66
2023/03/07 03:32:12;;;;;;;;;;;;;;;11.95;67.09;99350.13;1265596;23;692;-66
2023/03/07 03:33:02;;;;;;;;;;;;;;;11.92;67.94;99342.41;1260211;23;1884;-66
2023/03/07 03:33:53;;;;;;;;;;;;;;;11.91;67.75;99348.75;1260034;23;657;-66
2023/03/07 03:34:43;;;;;;;;;;;;;;;11.91;67.92;99356.75;1265810;23;622;-67
2023/03/07 03:35:33;;;;;;;;;;;;;;;11.90;67.42;99349.72;1265577;23;641;-66
2023/03/07 03:36:24;;;;;;;;;;;;;;;11.93;68.01;99353.94;1265871;23;709;-66
2023/03/07 03:37:15;;;;;;;;;;;;;;;11.90;68.08;99355.06;1265410;23;1181;-66
2023/03/07 03:38:05;;;;;;;;;;;;;;;11.92;68.04;99355.75;1265912;23;649;-67
2023/03/07 03:38:55;;;;;;;;;;;;;;;11.92;67.69;99353.09;1265621;23;1032;-67
2023/03/07 03:39:46;;;;;;;;;;;;;;;11.89;67.74;99353.38;1265802;23;662;-67
2023/03/07 03:40:36;;;;;;;;;;;;;;;11.90;67.84;99359.56;1266350;23;654;-67
2023/03/07 03:41:27;;;;;;;;;;;;;;;11.89;67.69;99357.88;1265796;23;684;-67
2023/03/07 03:42:17;;;;;;;;;;;;;;;11.88;67.88;99357.03;1265402;23;732;-67
2023/03/07 03:43:08;;;;;;;;;;;;;;;11.90;68.18;99354.22;1265488;23;649;-67
2023/03/07 03:43:58;;;;;;;;;;;;;;;11.90;68.01;99349.72;1265891;23;621;-67
2023/03/07 03:44:48;;;;;;;;;;;;;;;11.88;67.59;99354.34;1265518;23;665;-67
2023/03/07 03:45:39;;;;;;;;;;;;;;;11.89;68.04;99350.69;1265791;23;626;-67
2023/03/07 03:46:29;;;;;;;;;;;;;;;11.90;67.35;99352.38;1266348;23;638;-68
2023/03/07 03:47:20;;;;;;;;;;;;;;;11.91;67.72;99347.91;1265074;23;724;-67
2023/03/07 03:48:10;;;;;;;;;;;;;;;11.92;68.14;99354.91;1265890;23;665;-68
2023/03/07 03:49:01;;;;;;;;;;;;;;;11.92;67.26;99357.59;1265664;23;653;-67
2023/03/07 03:49:51;;;;;;;;;;;;;;;11.92;67.34;99346.91;1265863;23;614;-68
2023/03/07 03:50:41;;;;;;;;;;;;;;;11.92;68.09;99347.75;1266327;23;613;-67
2023/03/07 03:51:32;;;;;;;;;;;;;;;11.93;67.30;99352.09;1265812;23;700;-68
2023/03/07 03:52:22;;;;;;;;;;;;;;;11.93;67.69;99346.75;1266436;23;635;-68
2023/03/07 03:53:13;;;;;;;;;;;;;;;11.91;68.16;99345.22;1265627;23;1946;-68
2023/03/07 03:54:03;;;;;;;;;;;;;;;11.93;67.37;99353.94;1266409;23;693;-67
2023/03/07 03:54:54;;;;;;;;;;;;;;;11.90;67.66;99352.38;1266491;23;677;-67
2023/03/07 03:55:44;;;;;;;;;;;;;;;11.89;68.20;99356.03;1265814;23;665;-68
2023/03/07 03:56:35;;;;;;;;;;;;;;;11.88;68.01;99346.34;1265662;23;807;-68
2023/03/07 03:57:25;;;;;;;;;;;;;;;11.86;67.38;99353.66;1265781;23;634;-68
2023/03/07 03:58:15;;;;;;;;;;;;;;;11.88;68.18;99357.03;1265495;23;618;-68
2023/03/07 03:59:06;;;;;;;;;;;;;;;11.89;68.25;99356.03;1265714;23;657;-68
2023/03/07 03:59:57;;;;;;;;;;;;;;;11.90;67.34;99357.72;1265492;23;650;-68
2023/03/07 04:00:47;;;;;;;;;;;;;;;11.90;68.14;99354.22;1266548;23;641;-68
2023/03/07 04:01:37;;;;;;;;;;;;;;;11.89;67.37;99358.72;1264841;23;650;-69
2023/03/07 04:02:29;;;;;;;;;;;;;;;11.91;68.10;99345.22;1265753;23;731;-68
2023/03/07 04:03:19;;;;;;;;;;;;;;;11.87;68.20;99354.50;1265512;23;645;-68
2023/03/07 04:04:10;;;;;;;;;;;;;;;11.88;67.79;99356.19;1266524;23;645;-69
2023/03/07 04:05:00;;;;;;;;;;;;;;;11.89;67.52;99361.38;1266278;23;760;-68
2023/03/07 04:05:51;;;;;;;;;;;;;;;11.89;68.10;99356.03;1266313;23;618;-68
2023/03/07 04:06:41;;;;;;;;;;;;;;;11.86;68.33;99356.31;1260883;23;684;-68
2023/03/07 04:07:31;;;;;;;;;;;;;;;11.88;68.05;99353.50;1259853;23;614;-68
2023/03/07 04:08:22;;;;;;;;;;;;;;;11.87;68.15;99352.66;1267202;23;681;-68
2023/03/07 04:09:12;;;;;;;;;;;;;;;11.89;67.66;99353.38;1265474;23;638;-68
2023/03/07 04:10:03;;;;;;;;;;;;;;;11.91;67.67;99350.56;1265503;23;626;-68
2023/03/07 04:10:54;;;;;;;;;;;;;;;11.89;67.73;99349.88;1266528;23;661;-67
2023/03/07 04:11:45;;;;;;;;;;;;;;;11.89;68.13;99349.88;1265536;23;594;-68
2023/03/07 04:12:35;;;;;;;;;;;;;;;11.88;67.38;99351.69;1265739;23;658;-68
2023/03/07 04:13:25;;;;;;;;;;;;;;;11.89;67.41;99348.03;1265356;23;650;-68
2023/03/07 04:14:16;;;;;;;;;;;;;;;11.90;67.75;99344.38;1266361;23;641;-68
2023/03/07 04:15:06;;;;;;;;;;;;;;;11.89;68.15;99353.38;1266350;23;682;-68
2023/03/07 04:15:57;;;;;;;;;;;;;;;11.89;68.05;99341.84;1265586;23;642;-67
2023/03/07 04:16:47;;;;;;;;;;;;;;;11.89;68.22;99345.38;1260860;23;700;-68
2023/03/07 04:17:37;;;;;;;;;;;;;;;11.89;67.90;99348.03;1254815;23;606;-67
2023/03/07 04:18:28;;;;;;;;;;;;;;;11.88;68.21;99350.84;1259870;23;642;-68
2023/03/07 04:19:18;;;;;;;;;;;;;;;11.87;67.24;99347.34;1265333;23;642;-68
2023/03/07 04:20:16;;;;;;;;;;;;;;;11.87;67.36;99347.34;1265535;23;602;-67
2023/03/07 04:21:06;;;;;;;;;;;;;;;11.87;68.04;99341.16;1265738;23;634;-68
2023/03/07 04:21:57;;;;;;;;;;;;;;;11.87;68.22;99338.47;1265565;23;670;-68
2023/03/07 04:22:47;;;;;;;;;;;;;;;11.86;67.53;99332.31;1266453;23;661;-68
2023/03/07 04:23:38;;;;;;;;;;;;;;;11.88;68.22;99333.00;1266444;23;688;-68
2023/03/07 04:24:28;;;;;;;;;;;;;;;11.87;67.57;99334.00;1266478;23;665;-68
2023/03/07 04:25:18;;;;;;;;;;;;;;;11.87;67.68;99335.81;1260842;23;642;-68
2023/03/07 04:26:09;;;;;;;;;;;;;;;11.87;67.76;99333.16;1260045;23;646;-68
2023/03/07 04:26:59;;;;;;;;;;;;;;;11.88;67.64;99326.81;1266106;23;653;-67
2023/03/07 04:27:50;;;;;;;;;;;;;;;11.86;67.93;99326.97;1260843;23;681;-67
2023/03/07 04:28:42;;;;;;;;;;;;;;;11.85;67.84;99330.63;1260051;23;665;-68
2023/03/07 04:29:33;;;;;;;;;;;;;;;11.86;67.85;99323.44;1265477;23;618;-68